sensor_id;sensor_type;location;lat;lon;timestamp;temperature;humidity
43987;DHT22;29650;47.378;8.300;2024-01-15T00:00:01;1.10;99.90
43987;DHT22;29650;47.378;8.300;2024-01-15T00:02:30;1.10;99.90
43987;DHT22;29650;47.378;8.300;2024-01-15T00:04:57;1.00;99.90
43987;DHT22;29650;47.378;8.300;2024-01-15T00:07:24;1.40;99.90
43987;DHT22;29650;47.378;8.300;2024-01-15T00:09:50;1.30;99.90
43987;DHT22;29650;47.378;8.300;2024-01-15T00:12:17;0.90;99.90
43987;DHT22;29650;47.378;8.300;2024-01-15T00:14:44;1.00;99.90
43987;DHT22;29650;47.378;8.300;2024-01-15T00:17:13;1.00;99.90
43987;DHT22;29650;47.378;8.300;2024-01-15T00:19:40;1.00;99.90
43987;DHT22;29650;47.378;8.300;2024-01-15T00:22:07;1.00;99.90
43987;DHT22;29650;47.378;8.300;2024-01-15T00:24:34;1.00;99.90
43987;DHT22;29650;47.378;8.300;2024-01-15T00:27:00;1.00;99.90
43987;DHT22;29650;47.378;8.300;2024-01-15T00:29:27;1.00;99.90
43987;DHT22;29650;47.378;8.300;2024-01-15T00:31:54;1.00;99.90
43987;DHT22;29650;47.378;8.300;2024-01-15T00:34:23;1.90;99.90
43987;DHT22;29650;47.378;8.300;2024-01-15T00:36:50;1.10;99.90
43987;DHT22;29650;47.378;8.300;2024-01-15T00:39:17;3.20;99.90
43987;DHT22;29650;47.378;8.300;2024-01-15T00:41:44;1.00;99.90
43987;DHT22;29650;47.378;8.300;2024-01-15T00:44:11;2.10;99.90
43987;DHT22;29650;47.378;8.300;2024-01-15T00:46:43;2.00;99.90
43987;DHT22;29650;47.378;8.300;2024-01-15T00:49:10;1.60;99.90
43987;DHT22;29650;47.378;8.300;2024-01-15T00:51:39;1.10;99.90
43987;DHT22;29650;47.378;8.300;2024-01-15T00:54:06;1.20;99.90
43987;DHT22;29650;47.378;8.300;2024-01-15T00:56:32;1.80;99.90
43987;DHT22;29650;47.378;8.300;2024-01-15T00:59:01;1.20;99.90
43987;DHT22;29650;47.378;8.300;2024-01-15T01:01:28;1.10;99.90
43987;DHT22;29650;47.378;8.300;2024-01-15T01:03:55;2.10;99.90
43987;DHT22;29650;47.378;8.300;2024-01-15T01:06:22;0.70;99.90
43987;DHT22;29650;47.378;8.300;2024-01-15T01:08:50;1.10;99.90
43987;DHT22;29650;47.378;8.300;2024-01-15T01:11:17;2.30;99.90
43987;DHT22;29650;47.378;8.300;2024-01-15T01:13:44;2.00;99.90
43987;DHT22;29650;47.378;8.300;2024-01-15T01:16:11;2.10;99.90
43987;DHT22;29650;47.378;8.300;2024-01-15T01:18:38;0.60;99.90
43987;DHT22;29650;47.378;8.300;2024-01-15T01:21:05;0.60;99.90
43987;DHT22;29650;47.378;8.300;2024-01-15T01:23:32;1.80;99.90
43987;DHT22;29650;47.378;8.300;2024-01-15T01:26:00;0.50;99.90
43987;DHT22;29650;47.378;8.300;2024-01-15T01:28:27;0.60;99.90
43987;DHT22;29650;47.378;8.300;2024-01-15T01:33:22;0.60;99.90
43987;DHT22;29650;47.378;8.300;2024-01-15T01:35:49;1.40;99.90
43987;DHT22;29650;47.378;8.300;2024-01-15T01:38:16;0.60;99.90
43987;DHT22;29650;47.378;8.300;2024-01-15T01:40:42;2.20;99.90
43987;DHT22;29650;47.378;8.300;2024-01-15T01:43:11;0.70;99.90
43987;DHT22;29650;47.378;8.300;2024-01-15T01:45:38;1.50;99.90
43987;DHT22;29650;47.378;8.300;2024-01-15T01:48:05;2.20;99.90
43987;DHT22;29650;47.378;8.300;2024-01-15T01:50:33;0.70;99.90
43987;DHT22;29650;47.378;8.300;2024-01-15T01:53:01;0.60;99.90
43987;DHT22;29650;47.378;8.300;2024-01-15T01:55:31;1.40;99.90
43987;DHT22;29650;47.378;8.300;2024-01-15T01:57:59;0.60;99.90
43987;DHT22;29650;47.378;8.300;2024-01-15T02:00:28;1.00;99.90
43987;DHT22;29650;47.378;8.300;2024-01-15T02:02:55;0.50;99.90
43987;DHT22;29650;47.378;8.300;2024-01-15T02:05:22;0.50;99.90
43987;DHT22;29650;47.378;8.300;2024-01-15T02:07:49;0.70;99.90
43987;DHT22;29650;47.378;8.300;2024-01-15T02:12:44;0.50;99.90
43987;DHT22;29650;47.378;8.300;2024-01-15T02:15:14;0.50;99.90
43987;DHT22;29650;47.378;8.300;2024-01-15T02:17:58;0.40;99.90
43987;DHT22;29650;47.378;8.300;2024-01-15T02:20:25;1.70;99.90
43987;DHT22;29650;47.378;8.300;2024-01-15T02:22:52;0.40;99.90
43987;DHT22;29650;47.378;8.300;2024-01-15T02:25:21;2.00;99.90
43987;DHT22;29650;47.378;8.300;2024-01-15T02:27:48;2.40;99.90
43987;DHT22;29650;47.378;8.300;2024-01-15T02:30:15;0.20;99.90
43987;DHT22;29650;47.378;8.300;2024-01-15T02:32:43;1.40;99.90
43987;DHT22;29650;47.378;8.300;2024-01-15T02:35:10;0.40;99.90
43987;DHT22;29650;47.378;8.300;2024-01-15T02:37:37;1.90;99.90
43987;DHT22;29650;47.378;8.300;2024-01-15T02:40:04;0.20;99.90
43987;DHT22;29650;47.378;8.300;2024-01-15T02:42:33;0.30;99.90
43987;DHT22;29650;47.378;8.300;2024-01-15T02:45:00;2.10;99.90
43987;DHT22;29650;47.378;8.300;2024-01-15T02:47:26;0.40;99.90
43987;DHT22;29650;47.378;8.300;2024-01-15T02:49:53;0.90;99.90
43987;DHT22;29650;47.378;8.300;2024-01-15T02:52:20;2.50;99.90
43987;DHT22;29650;47.378;8.300;2024-01-15T02:54:47;0.50;99.90
43987;DHT22;29650;47.378;8.300;2024-01-15T02:57:14;1.00;99.90
43987;DHT22;29650;47.378;8.300;2024-01-15T02:59:42;0.90;99.90
43987;DHT22;29650;47.378;8.300;2024-01-15T03:04:37;0.50;99.90
43987;DHT22;29650;47.378;8.300;2024-01-15T03:07:04;0.60;99.90
43987;DHT22;29650;47.378;8.300;2024-01-15T03:09:31;0.70;99.90
43987;DHT22;29650;47.378;8.300;2024-01-15T03:11:58;0.60;99.90
43987;DHT22;29650;47.378;8.300;2024-01-15T03:14:25;1.00;99.90
43987;DHT22;29650;47.378;8.300;2024-01-15T03:16:53;0.70;99.90
43987;DHT22;29650;47.378;8.300;2024-01-15T03:19:20;0.70;99.90
43987;DHT22;29650;47.378;8.300;2024-01-15T03:21:47;0.70;99.90
43987;DHT22;29650;47.378;8.300;2024-01-15T03:29:08;0.80;99.90
43987;DHT22;29650;47.378;8.300;2024-01-15T03:31:35;0.90;99.90
43987;DHT22;29650;47.378;8.300;2024-01-15T03:34:04;0.80;99.90
43987;DHT22;29650;47.378;8.300;2024-01-15T03:36:30;0.90;99.90
43987;DHT22;29650;47.378;8.300;2024-01-15T03:38:57;1.30;99.90
43987;DHT22;29650;47.378;8.300;2024-01-15T03:41:24;0.90;99.90
43987;DHT22;29650;47.378;8.300;2024-01-15T03:43:51;1.50;99.90
43987;DHT22;29650;47.378;8.300;2024-01-15T03:46:18;1.90;99.90
43987;DHT22;29650;47.378;8.300;2024-01-15T03:48:45;0.90;99.90
43987;DHT22;29650;47.378;8.300;2024-01-15T03:51:16;2.10;99.90
43987;DHT22;29650;47.378;8.300;2024-01-15T03:53:43;0.90;99.90
43987;DHT22;29650;47.378;8.300;2024-01-15T03:56:10;0.90;99.90
43987;DHT22;29650;47.378;8.300;2024-01-15T03:58:37;1.00;99.90
43987;DHT22;29650;47.378;8.300;2024-01-15T04:01:07;1.00;99.90
43987;DHT22;29650;47.378;8.300;2024-01-15T04:03:34;0.90;99.90
43987;DHT22;29650;47.378;8.300;2024-01-15T04:06:01;0.90;99.90
43987;DHT22;29650;47.378;8.300;2024-01-15T04:08:30;0.90;99.90
43987;DHT22;29650;47.378;8.300;2024-01-15T04:10:57;1.10;99.90
43987;DHT22;29650;47.378;8.300;2024-01-15T04:13:24;0.80;99.90
43987;DHT22;29650;47.378;8.300;2024-01-15T04:15:52;0.80;99.90
43987;DHT22;29650;47.378;8.300;2024-01-15T04:18:18;2.70;99.90
43987;DHT22;29650;47.378;8.300;2024-01-15T04:20:45;0.90;99.90
43987;DHT22;29650;47.378;8.300;2024-01-15T04:23:12;0.90;99.90
43987;DHT22;29650;47.378;8.300;2024-01-15T04:25:41;1.20;99.90
43987;DHT22;29650;47.378;8.300;2024-01-15T04:28:08;0.90;99.90
43987;DHT22;29650;47.378;8.300;2024-01-15T04:30:35;0.80;99.90
43987;DHT22;29650;47.378;8.300;2024-01-15T04:33:02;1.60;99.90
43987;DHT22;29650;47.378;8.300;2024-01-15T04:35:30;0.60;99.90
43987;DHT22;29650;47.378;8.300;2024-01-15T04:37:57;0.70;99.90
43987;DHT22;29650;47.378;8.300;2024-01-15T04:40:24;1.30;99.90
43987;DHT22;29650;47.378;8.300;2024-01-15T04:42:54;3.00;99.90
43987;DHT22;29650;47.378;8.300;2024-01-15T04:45:21;2.10;99.90
43987;DHT22;29650;47.378;8.300;2024-01-15T04:47:54;1.00;99.90
43987;DHT22;29650;47.378;8.300;2024-01-15T04:50:21;1.00;99.90
43987;DHT22;29650;47.378;8.300;2024-01-15T04:52:48;1.00;99.90
43987;DHT22;29650;47.378;8.300;2024-01-15T04:55:15;1.10;99.90
43987;DHT22;29650;47.378;8.300;2024-01-15T04:57:42;1.10;99.90
43987;DHT22;29650;47.378;8.300;2024-01-15T05:00:12;1.10;99.90
43987;DHT22;29650;47.378;8.300;2024-01-15T05:02:40;1.00;99.90
43987;DHT22;29650;47.378;8.300;2024-01-15T05:05:07;1.40;99.90
43987;DHT22;29650;47.378;8.300;2024-01-15T05:07:34;1.20;98.60
43987;DHT22;29650;47.378;8.300;2024-01-15T05:10:01;1.30;94.70
43987;DHT22;29650;47.378;8.300;2024-01-15T05:12:29;2.40;95.20
43987;DHT22;29650;47.378;8.300;2024-01-15T05:14:55;2.80;94.60
43987;DHT22;29650;47.378;8.300;2024-01-15T05:17:24;2.70;94.80
43987;DHT22;29650;47.378;8.300;2024-01-15T05:19:51;1.50;94.10
43987;DHT22;29650;47.378;8.300;2024-01-15T05:22:18;1.20;95.00
43987;DHT22;29650;47.378;8.300;2024-01-15T05:24:45;2.10;94.90
43987;DHT22;29650;47.378;8.300;2024-01-15T05:27:12;1.30;93.30
43987;DHT22;29650;47.378;8.300;2024-01-15T05:29:38;1.20;93.40
43987;DHT22;29650;47.378;8.300;2024-01-15T05:32:06;1.30;92.50
43987;DHT22;29650;47.378;8.300;2024-01-15T05:34:34;1.30;92.80
43987;DHT22;29650;47.378;8.300;2024-01-15T05:37:01;1.20;93.00
43987;DHT22;29650;47.378;8.300;2024-01-15T05:39:28;1.40;92.90
43987;DHT22;29650;47.378;8.300;2024-01-15T05:44:22;1.30;95.30
43987;DHT22;29650;47.378;8.300;2024-01-15T05:46:48;1.30;95.00
43987;DHT22;29650;47.378;8.300;2024-01-15T05:49:15;1.20;95.70
43987;DHT22;29650;47.378;8.300;2024-01-15T05:51:43;1.30;95.90
43987;DHT22;29650;47.378;8.300;2024-01-15T05:54:10;2.30;96.70
43987;DHT22;29650;47.378;8.300;2024-01-15T05:56:37;1.40;96.90
43987;DHT22;29650;47.378;8.300;2024-01-15T05:59:04;2.10;97.60
43987;DHT22;29650;47.378;8.300;2024-01-15T06:01:31;1.20;98.80
43987;DHT22;29650;47.378;8.300;2024-01-15T06:03:58;1.60;98.90
43987;DHT22;29650;47.378;8.300;2024-01-15T06:06:25;1.30;98.50
43987;DHT22;29650;47.378;8.300;2024-01-15T06:08:53;1.30;99.10
43987;DHT22;29650;47.378;8.300;2024-01-15T06:11:20;3.50;99.70
43987;DHT22;29650;47.378;8.300;2024-01-15T06:13:47;1.20;99.90
43987;DHT22;29650;47.378;8.300;2024-01-15T06:16:14;1.50;99.90
43987;DHT22;29650;47.378;8.300;2024-01-15T06:18:42;1.30;99.90
43987;DHT22;29650;47.378;8.300;2024-01-15T06:21:09;1.20;99.90
43987;DHT22;29650;47.378;8.300;2024-01-15T06:23:38;1.30;99.90
43987;DHT22;29650;47.378;8.300;2024-01-15T06:26:06;1.20;99.90
43987;DHT22;29650;47.378;8.300;2024-01-15T06:28:33;1.30;99.90
43987;DHT22;29650;47.378;8.300;2024-01-15T06:31:00;1.50;99.90
43987;DHT22;29650;47.378;8.300;2024-01-15T06:33:27;1.30;99.90
43987;DHT22;29650;47.378;8.300;2024-01-15T06:35:54;1.30;99.80
43987;DHT22;29650;47.378;8.300;2024-01-15T06:38:22;1.70;99.90
43987;DHT22;29650;47.378;8.300;2024-01-15T06:40:49;1.20;99.60
43987;DHT22;29650;47.378;8.300;2024-01-15T06:43:18;1.30;98.90
43987;DHT22;29650;47.378;8.300;2024-01-15T06:45:45;1.30;97.90
43987;DHT22;29650;47.378;8.300;2024-01-15T06:48:12;1.40;96.30
43987;DHT22;29650;47.378;8.300;2024-01-15T06:50:40;1.30;95.10
43987;DHT22;29650;47.378;8.300;2024-01-15T06:53:07;1.30;95.40
43987;DHT22;29650;47.378;8.300;2024-01-15T06:55:34;1.30;95.00
43987;DHT22;29650;47.378;8.300;2024-01-15T06:58:01;1.50;93.60
43987;DHT22;29650;47.378;8.300;2024-01-15T07:00:29;1.40;94.50
43987;DHT22;29650;47.378;8.300;2024-01-15T07:02:56;1.30;92.70
43987;DHT22;29650;47.378;8.300;2024-01-15T07:05:23;1.40;92.30
43987;DHT22;29650;47.378;8.300;2024-01-15T07:07:51;1.40;92.50
43987;DHT22;29650;47.378;8.300;2024-01-15T07:10:17;3.50;93.20
43987;DHT22;29650;47.378;8.300;2024-01-15T07:12:45;1.40;91.90
43987;DHT22;29650;47.378;8.300;2024-01-15T07:15:12;1.40;90.40
43987;DHT22;29650;47.378;8.300;2024-01-15T07:17:40;1.50;90.70
43987;DHT22;29650;47.378;8.300;2024-01-15T07:20:09;1.40;89.80
43987;DHT22;29650;47.378;8.300;2024-01-15T07:22:36;1.40;90.00
43987;DHT22;29650;47.378;8.300;2024-01-15T07:25:03;1.90;90.60
43987;DHT22;29650;47.378;8.300;2024-01-15T07:27:32;1.40;89.40
43987;DHT22;29650;47.378;8.300;2024-01-15T07:29:59;1.50;90.10
43987;DHT22;29650;47.378;8.300;2024-01-15T07:32:26;1.50;89.70
43987;DHT22;29650;47.378;8.300;2024-01-15T07:34:54;1.90;89.40
43987;DHT22;29650;47.378;8.300;2024-01-15T07:37:21;1.40;89.70
43987;DHT22;29650;47.378;8.300;2024-01-15T07:39:48;1.30;90.70
43987;DHT22;29650;47.378;8.300;2024-01-15T07:42:15;1.60;92.30
43987;DHT22;29650;47.378;8.300;2024-01-15T07:44:42;2.40;92.70
43987;DHT22;29650;47.378;8.300;2024-01-15T07:47:10;2.00;93.40
43987;DHT22;29650;47.378;8.300;2024-01-15T07:49:37;1.30;93.50
43987;DHT22;29650;47.378;8.300;2024-01-15T07:52:06;1.40;93.00
43987;DHT22;29650;47.378;8.300;2024-01-15T07:54:33;1.40;92.30
43987;DHT22;29650;47.378;8.300;2024-01-15T07:57:01;1.50;91.10
43987;DHT22;29650;47.378;8.300;2024-01-15T07:59:29;1.90;91.60
43987;DHT22;29650;47.378;8.300;2024-01-15T08:01:56;1.50;88.70
43987;DHT22;29650;47.378;8.300;2024-01-15T08:04:23;1.40;87.00
43987;DHT22;29650;47.378;8.300;2024-01-15T08:06:50;1.50;88.20
43987;DHT22;29650;47.378;8.300;2024-01-15T08:09:18;1.50;87.60
43987;DHT22;29650;47.378;8.300;2024-01-15T08:11:45;-0.30;86.10
43987;DHT22;29650;47.378;8.300;2024-01-15T08:14:13;1.60;87.00
43987;DHT22;29650;47.378;8.300;2024-01-15T08:16:40;1.50;83.00
43987;DHT22;29650;47.378;8.300;2024-01-15T08:19:09;1.60;83.20
43987;DHT22;29650;47.378;8.300;2024-01-15T08:21:36;1.60;83.60
43987;DHT22;29650;47.378;8.300;2024-01-15T08:24:03;2.10;84.60
43987;DHT22;29650;47.378;8.300;2024-01-15T08:26:32;1.50;87.40
43987;DHT22;29650;47.378;8.300;2024-01-15T08:28:59;1.50;89.60
43987;DHT22;29650;47.378;8.300;2024-01-15T08:31:26;1.60;90.90
43987;DHT22;29650;47.378;8.300;2024-01-15T08:33:53;1.60;90.30
43987;DHT22;29650;47.378;8.300;2024-01-15T08:36:21;2.00;90.00
43987;DHT22;29650;47.378;8.300;2024-01-15T08:38:48;1.60;90.50
43987;DHT22;29650;47.378;8.300;2024-01-15T08:41:15;1.50;92.20
43987;DHT22;29650;47.378;8.300;2024-01-15T08:43:43;1.50;93.50
43987;DHT22;29650;47.378;8.300;2024-01-15T08:46:10;1.50;94.60
43987;DHT22;29650;47.378;8.300;2024-01-15T08:48:37;4.00;94.80
43987;DHT22;29650;47.378;8.300;2024-01-15T08:51:05;1.60;93.90
43987;DHT22;29650;47.378;8.300;2024-01-15T08:53:33;1.60;93.20
43987;DHT22;29650;47.378;8.300;2024-01-15T08:56:00;1.70;91.70
43987;DHT22;29650;47.378;8.300;2024-01-15T08:58:27;1.70;88.40
43987;DHT22;29650;47.378;8.300;2024-01-15T09:00:55;1.70;84.80
43987;DHT22;29650;47.378;8.300;2024-01-15T09:03:22;1.80;82.50
43987;DHT22;29650;47.378;8.300;2024-01-15T09:05:51;1.80;80.80
43987;DHT22;29650;47.378;8.300;2024-01-15T09:08:18;1.80;80.00
43987;DHT22;29650;47.378;8.300;2024-01-15T09:10:45;1.80;77.20
43987;DHT22;29650;47.378;8.300;2024-01-15T09:13:12;1.80;76.70
43987;DHT22;29650;47.378;8.300;2024-01-15T09:15:39;1.90;77.30
43987;DHT22;29650;47.378;8.300;2024-01-15T09:18:08;1.90;77.10
43987;DHT22;29650;47.378;8.300;2024-01-15T09:20:35;4.00;79.40
43987;DHT22;29650;47.378;8.300;2024-01-15T09:23:04;1.70;82.40
43987;DHT22;29650;47.378;8.300;2024-01-15T09:25:31;1.90;83.90
43987;DHT22;29650;47.378;8.300;2024-01-15T09:27:58;1.90;83.40
43987;DHT22;29650;47.378;8.300;2024-01-15T09:30:25;1.80;83.30
43987;DHT22;29650;47.378;8.300;2024-01-15T09:32:52;1.70;83.80
43987;DHT22;29650;47.378;8.300;2024-01-15T09:35:20;1.90;82.70
43987;DHT22;29650;47.378;8.300;2024-01-15T09:37:47;1.80;82.70
43987;DHT22;29650;47.378;8.300;2024-01-15T09:40:14;1.80;82.00
43987;DHT22;29650;47.378;8.300;2024-01-15T09:42:42;1.90;82.10
43987;DHT22;29650;47.378;8.300;2024-01-15T09:45:10;1.90;79.60
43987;DHT22;29650;47.378;8.300;2024-01-15T09:47:37;2.00;75.20
43987;DHT22;29650;47.378;8.300;2024-01-15T09:50:05;1.90;70.20
43987;DHT22;29650;47.378;8.300;2024-01-15T09:52:34;2.10;70.30
43987;DHT22;29650;47.378;8.300;2024-01-15T09:55:03;2.10;65.40
43987;DHT22;29650;47.378;8.300;2024-01-15T09:57:31;2.10;65.00
43987;DHT22;29650;47.378;8.300;2024-01-15T09:59:59;2.00;60.60
43987;DHT22;29650;47.378;8.300;2024-01-15T10:02:30;2.10;55.50
43987;DHT22;29650;47.378;8.300;2024-01-15T10:04:57;2.10;47.70
43987;DHT22;29650;47.378;8.300;2024-01-15T10:07:25;2.20;44.10
43987;DHT22;29650;47.378;8.300;2024-01-15T10:09:55;2.80;44.20
43987;DHT22;29650;47.378;8.300;2024-01-15T10:12:22;2.30;42.90
43987;DHT22;29650;47.378;8.300;2024-01-15T10:14:50;2.20;43.60
43987;DHT22;29650;47.378;8.300;2024-01-15T10:17:17;2.30;44.20
43987;DHT22;29650;47.378;8.300;2024-01-15T10:19:45;2.40;44.70
43987;DHT22;29650;47.378;8.300;2024-01-15T10:22:14;2.50;45.00
43987;DHT22;29650;47.378;8.300;2024-01-15T10:24:41;2.50;46.40
43987;DHT22;29650;47.378;8.300;2024-01-15T10:27:10;2.90;42.90
43987;DHT22;29650;47.378;8.300;2024-01-15T10:29:37;2.60;43.60
43987;DHT22;29650;47.378;8.300;2024-01-15T10:32:06;2.50;44.50
43987;DHT22;29650;47.378;8.300;2024-01-15T10:34:36;2.50;40.50
43987;DHT22;29650;47.378;8.300;2024-01-15T10:37:04;2.50;39.80
43987;DHT22;29650;47.378;8.300;2024-01-15T10:39:31;2.60;43.30
43987;DHT22;29650;47.378;8.300;2024-01-15T10:41:58;2.50;42.20
43987;DHT22;29650;47.378;8.300;2024-01-15T10:44:27;2.60;42.40
43987;DHT22;29650;47.378;8.300;2024-01-15T10:46:55;2.70;42.00
43987;DHT22;29650;47.378;8.300;2024-01-15T10:49:23;2.70;42.80
43987;DHT22;29650;47.378;8.300;2024-01-15T10:51:52;2.80;43.90
43987;DHT22;29650;47.378;8.300;2024-01-15T10:54:21;2.80;42.30
43987;DHT22;29650;47.378;8.300;2024-01-15T10:56:49;2.80;41.70
43987;DHT22;29650;47.378;8.300;2024-01-15T10:59:17;2.70;37.50
43987;DHT22;29650;47.378;8.300;2024-01-15T11:01:47;2.90;40.50
43987;DHT22;29650;47.378;8.300;2024-01-15T11:04:14;2.80;42.50
43987;DHT22;29650;47.378;8.300;2024-01-15T11:06:43;2.90;45.40
43987;DHT22;29650;47.378;8.300;2024-01-15T11:09:12;2.90;46.00
43987;DHT22;29650;47.378;8.300;2024-01-15T11:11:41;2.90;45.70
43987;DHT22;29650;47.378;8.300;2024-01-15T11:14:09;3.00;46.30
43987;DHT22;29650;47.378;8.300;2024-01-15T11:16:57;3.00;48.80
43987;DHT22;29650;47.378;8.300;2024-01-15T11:19:25;3.60;49.30
43987;DHT22;29650;47.378;8.300;2024-01-15T11:21:53;3.00;48.80
43987;DHT22;29650;47.378;8.300;2024-01-15T11:24:39;3.00;48.20
43987;DHT22;29650;47.378;8.300;2024-01-15T11:27:07;3.00;49.30
43987;DHT22;29650;47.378;8.300;2024-01-15T11:29:36;3.00;50.00
43987;DHT22;29650;47.378;8.300;2024-01-15T11:32:05;3.00;48.70
43987;DHT22;29650;47.378;8.300;2024-01-15T11:34:56;3.00;49.60
43987;DHT22;29650;47.378;8.300;2024-01-15T11:37:28;3.00;56.80
43987;DHT22;29650;47.378;8.300;2024-01-15T11:39:56;2.90;65.90
43987;DHT22;29650;47.378;8.300;2024-01-15T11:42:27;2.80;79.50
43987;DHT22;29650;47.378;8.300;2024-01-15T11:44:54;2.80;86.30
43987;DHT22;29650;47.378;8.300;2024-01-15T11:50:21;2.80;92.50
43987;DHT22;29650;47.378;8.300;2024-01-15T11:52:57;2.80;94.40
43987;DHT22;29650;47.378;8.300;2024-01-15T11:55:27;2.60;96.30
43987;DHT22;29650;47.378;8.300;2024-01-15T11:57:55;2.70;96.90
43987;DHT22;29650;47.378;8.300;2024-01-15T12:00:24;2.70;98.50
43987;DHT22;29650;47.378;8.300;2024-01-15T12:02:52;2.70;98.40
43987;DHT22;29650;47.378;8.300;2024-01-15T12:05:20;2.70;97.60
43987;DHT22;29650;47.378;8.300;2024-01-15T12:07:49;2.60;98.50
43987;DHT22;29650;47.378;8.300;2024-01-15T12:10:17;2.60;99.50
43987;DHT22;29650;47.378;8.300;2024-01-15T12:12:55;2.60;99.90
43987;DHT22;29650;47.378;8.300;2024-01-15T12:15:24;3.10;99.90
43987;DHT22;29650;47.378;8.300;2024-01-15T12:17:52;2.90;99.30
43987;DHT22;29650;47.378;8.300;2024-01-15T12:20:21;3.00;99.50
43987;DHT22;29650;47.378;8.300;2024-01-15T12:22:48;3.10;95.20
43987;DHT22;29650;47.378;8.300;2024-01-15T12:25:16;3.00;93.80
43987;DHT22;29650;47.378;8.300;2024-01-15T12:27:43;3.00;94.50
43987;DHT22;29650;47.378;8.300;2024-01-15T12:30:11;3.00;93.30
43987;DHT22;29650;47.378;8.300;2024-01-15T12:32:40;2.90;93.40
43987;DHT22;29650;47.378;8.300;2024-01-15T12:35:10;2.80;93.60
43987;DHT22;29650;47.378;8.300;2024-01-15T12:37:37;2.80;93.50
43987;DHT22;29650;47.378;8.300;2024-01-15T12:40:05;2.80;94.00
43987;DHT22;29650;47.378;8.300;2024-01-15T12:42:33;2.80;94.70
43987;DHT22;29650;47.378;8.300;2024-01-15T12:45:00;2.80;94.80
43987;DHT22;29650;47.378;8.300;2024-01-15T12:47:28;2.90;96.00
43987;DHT22;29650;47.378;8.300;2024-01-15T12:49:56;3.00;94.10
43987;DHT22;29650;47.378;8.300;2024-01-15T12:52:27;3.10;93.00
43987;DHT22;29650;47.378;8.300;2024-01-15T12:54:54;3.20;91.80
43987;DHT22;29650;47.378;8.300;2024-01-15T12:57:21;3.10;89.10
43987;DHT22;29650;47.378;8.300;2024-01-15T12:59:49;3.10;83.00
43987;DHT22;29650;47.378;8.300;2024-01-15T13:02:16;2.90;75.70
43987;DHT22;29650;47.378;8.300;2024-01-15T13:04:44;2.90;76.30
43987;DHT22;29650;47.378;8.300;2024-01-15T13:07:11;2.90;69.30
43987;DHT22;29650;47.378;8.300;2024-01-15T13:09:40;2.70;63.80
43987;DHT22;29650;47.378;8.300;2024-01-15T13:12:07;2.60;64.60
43987;DHT22;29650;47.378;8.300;2024-01-15T13:14:34;2.60;64.80
43987;DHT22;29650;47.378;8.300;2024-01-15T13:17:02;2.60;66.80
43987;DHT22;29650;47.378;8.300;2024-01-15T13:19:30;2.60;66.80
43987;DHT22;29650;47.378;8.300;2024-01-15T13:21:59;2.50;67.40
43987;DHT22;29650;47.378;8.300;2024-01-15T13:24:26;2.50;71.50
43987;DHT22;29650;47.378;8.300;2024-01-15T13:26:55;2.50;72.20
43987;DHT22;29650;47.378;8.300;2024-01-15T13:29:22;2.50;72.20
43987;DHT22;29650;47.378;8.300;2024-01-15T13:31:49;2.50;71.80
43987;DHT22;29650;47.378;8.300;2024-01-15T13:34:17;2.50;70.10
43987;DHT22;29650;47.378;8.300;2024-01-15T13:36:44;2.60;71.30
43987;DHT22;29650;47.378;8.300;2024-01-15T13:39:11;2.50;76.30
43987;DHT22;29650;47.378;8.300;2024-01-15T13:41:38;2.50;74.50
43987;DHT22;29650;47.378;8.300;2024-01-15T13:44:07;2.50;74.30
43987;DHT22;29650;47.378;8.300;2024-01-15T13:46:34;1.70;76.80
43987;DHT22;29650;47.378;8.300;2024-01-15T13:49:01;2.50;80.70
43987;DHT22;29650;47.378;8.300;2024-01-15T13:51:30;2.50;77.90
43987;DHT22;29650;47.378;8.300;2024-01-15T13:53:57;2.60;76.20
43987;DHT22;29650;47.378;8.300;2024-01-15T13:56:24;2.50;76.40
43987;DHT22;29650;47.378;8.300;2024-01-15T13:58:56;2.60;75.50
43987;DHT22;29650;47.378;8.300;2024-01-15T14:01:25;2.60;77.20
43987;DHT22;29650;47.378;8.300;2024-01-15T14:03:52;2.60;77.20
43987;DHT22;29650;47.378;8.300;2024-01-15T14:06:19;2.60;75.80
43987;DHT22;29650;47.378;8.300;2024-01-15T14:08:46;2.60;76.50
43987;DHT22;29650;47.378;8.300;2024-01-15T14:11:13;2.70;78.10
43987;DHT22;29650;47.378;8.300;2024-01-15T14:13:41;2.70;78.60
43987;DHT22;29650;47.378;8.300;2024-01-15T14:16:08;2.70;77.10
43987;DHT22;29650;47.378;8.300;2024-01-15T14:18:36;3.30;78.40
43987;DHT22;29650;47.378;8.300;2024-01-15T14:21:04;2.70;77.50
43987;DHT22;29650;47.378;8.300;2024-01-15T14:23:31;2.60;78.20
43987;DHT22;29650;47.378;8.300;2024-01-15T14:25:58;2.80;79.00
43987;DHT22;29650;47.378;8.300;2024-01-15T14:28:25;2.70;77.60
43987;DHT22;29650;47.378;8.300;2024-01-15T14:30:52;2.80;78.60
43987;DHT22;29650;47.378;8.300;2024-01-15T14:33:19;2.90;80.60
43987;DHT22;29650;47.378;8.300;2024-01-15T14:35:47;2.60;80.80
43987;DHT22;29650;47.378;8.300;2024-01-15T14:38:14;2.60;81.80
43987;DHT22;29650;47.378;8.300;2024-01-15T14:40:41;2.50;84.60
43987;DHT22;29650;47.378;8.300;2024-01-15T14:43:09;2.60;87.80
43987;DHT22;29650;47.378;8.300;2024-01-15T14:45:36;2.90;88.40
43987;DHT22;29650;47.378;8.300;2024-01-15T14:48:04;2.40;88.20
43987;DHT22;29650;47.378;8.300;2024-01-15T14:50:31;2.40;89.60
43987;DHT22;29650;47.378;8.300;2024-01-15T14:52:59;2.40;89.70
43987;DHT22;29650;47.378;8.300;2024-01-15T14:55:26;2.80;91.90
43987;DHT22;29650;47.378;8.300;2024-01-15T14:57:53;2.30;91.60
43987;DHT22;29650;47.378;8.300;2024-01-15T15:00:20;2.30;90.90
43987;DHT22;29650;47.378;8.300;2024-01-15T15:02:48;2.20;90.80
43987;DHT22;29650;47.378;8.300;2024-01-15T15:05:15;2.30;91.00
43987;DHT22;29650;47.378;8.300;2024-01-15T15:07:42;2.20;91.80
43987;DHT22;29650;47.378;8.300;2024-01-15T15:10:11;2.20;91.40
43987;DHT22;29650;47.378;8.300;2024-01-15T15:12:38;2.20;91.30
43987;DHT22;29650;47.378;8.300;2024-01-15T15:15:06;2.20;91.30
43987;DHT22;29650;47.378;8.300;2024-01-15T15:17:33;2.30;91.20
43987;DHT22;29650;47.378;8.300;2024-01-15T15:20:01;2.30;90.40
43987;DHT22;29650;47.378;8.300;2024-01-15T15:22:29;2.30;89.70
43987;DHT22;29650;47.378;8.300;2024-01-15T15:24:56;2.20;90.10
43987;DHT22;29650;47.378;8.300;2024-01-15T15:27:24;2.40;89.10
43987;DHT22;29650;47.378;8.300;2024-01-15T15:29:53;2.30;90.10
43987;DHT22;29650;47.378;8.300;2024-01-15T15:32:20;2.30;87.50
43987;DHT22;29650;47.378;8.300;2024-01-15T15:34:46;2.60;84.90
43987;DHT22;29650;47.378;8.300;2024-01-15T15:37:14;2.30;84.50
43987;DHT22;29650;47.378;8.300;2024-01-15T15:39:42;2.30;83.50
43987;DHT22;29650;47.378;8.300;2024-01-15T15:42:09;2.20;82.30
43987;DHT22;29650;47.378;8.300;2024-01-15T15:44:39;2.20;78.80
43987;DHT22;29650;47.378;8.300;2024-01-15T15:47:11;2.20;77.00
43987;DHT22;29650;47.378;8.300;2024-01-15T15:49:38;2.20;75.60
43987;DHT22;29650;47.378;8.300;2024-01-15T15:52:05;1.80;72.70
43987;DHT22;29650;47.378;8.300;2024-01-15T15:54:32;2.20;71.30
43987;DHT22;29650;47.378;8.300;2024-01-15T15:56:59;2.20;71.70
43987;DHT22;29650;47.378;8.300;2024-01-15T15:59:26;2.10;72.30
43987;DHT22;29650;47.378;8.300;2024-01-15T16:01:54;2.10;72.80
43987;DHT22;29650;47.378;8.300;2024-01-15T16:04:21;2.10;73.20